sensor_id;sensor_type;location;lat;lon;timestamp;P1;durP1;ratioP1;P2;durP2;ratioP2
41167;SDS011;26906;45.658;9.272;2023-03-23T06:35:57;18.88;;;11.80;;
41167;SDS011;26906;45.658;9.272;2023-03-23T06:38:51;18.23;;;11.75;;
41167;SDS011;26906;45.658;9.272;2023-03-23T06:41:30;20.02;;;11.63;;
41167;SDS011;26906;45.658;9.272;2023-03-23T06:46:28;15.93;;;11.35;;
41167;SDS011;26906;45.658;9.272;2023-03-23T06:48:54;15.02;;;9.60;;
41167;SDS011;26906;45.658;9.272;2023-03-23T06:51:28;18.58;;;10.35;;
41167;SDS011;26906;45.658;9.272;2023-03-23T06:53:54;20.70;;;10.73;;
41167;SDS011;26906;45.658;9.272;2023-03-23T06:56:23;14.57;;;10.93;;
41167;SDS011;26906;45.658;9.272;2023-03-23T06:58:49;15.23;;;11.35;;
41167;SDS011;26906;45.658;9.272;2023-03-23T07:01:16;22.30;;;12.07;;
41167;SDS011;26906;45.658;9.272;2023-03-23T07:03:52;21.15;;;12.65;;
41167;SDS011;26906;45.658;9.272;2023-03-23T07:06:28;18.05;;;11.35;;
41167;SDS011;26906;45.658;9.272;2023-03-23T07:08:57;17.23;;;11.18;;
41167;SDS011;26906;45.658;9.272;2023-03-23T07:11:26;19.60;;;11.75;;
41167;SDS011;26906;45.658;9.272;2023-03-23T07:13:53;18.48;;;11.32;;
41167;SDS011;26906;45.658;9.272;2023-03-23T07:16:19;18.02;;;11.38;;
41167;SDS011;26906;45.658;9.272;2023-03-23T07:18:45;23.27;;;12.52;;
41167;SDS011;26906;45.658;9.272;2023-03-23T07:21:11;21.92;;;12.52;;
41167;SDS011;26906;45.658;9.272;2023-03-23T07:23:38;22.55;;;12.50;;
41167;SDS011;26906;45.658;9.272;2023-03-23T07:26:08;25.63;;;12.50;;
41167;SDS011;26906;45.658;9.272;2023-03-23T07:28:47;21.58;;;11.40;;
41167;SDS011;26906;45.658;9.272;2023-03-23T07:31:20;21.05;;;11.07;;
41167;SDS011;26906;45.658;9.272;2023-03-23T07:33:47;16.30;;;10.30;;
41167;SDS011;26906;45.658;9.272;2023-03-23T07:36:13;22.85;;;12.30;;
41167;SDS011;26906;45.658;9.272;2023-03-23T07:38:39;21.25;;;10.10;;
41167;SDS011;26906;45.658;9.272;2023-03-23T07:41:06;18.15;;;10.40;;
41167;SDS011;26906;45.658;9.272;2023-03-23T07:43:35;17.50;;;10.70;;
41167;SDS011;26906;45.658;9.272;2023-03-23T07:46:31;15.23;;;10.40;;
41167;SDS011;26906;45.658;9.272;2023-03-23T07:49:23;13.15;;;9.15;;
41167;SDS011;26906;45.658;9.272;2023-03-23T07:51:59;14.32;;;8.52;;
41167;SDS011;26906;45.658;9.272;2023-03-23T07:54:26;14.40;;;9.05;;
41167;SDS011;26906;45.658;9.272;2023-03-23T07:56:58;13.82;;;8.85;;
41167;SDS011;26906;45.658;9.272;2023-03-23T07:59:26;17.63;;;9.32;;
41167;SDS011;26906;45.658;9.272;2023-03-23T08:01:55;19.25;;;9.43;;
41167;SDS011;26906;45.658;9.272;2023-03-23T08:04:39;11.63;;;8.25;;
41167;SDS011;26906;45.658;9.272;2023-03-23T08:07:27;13.63;;;8.70;;
41167;SDS011;26906;45.658;9.272;2023-03-23T08:10:22;10.60;;;7.25;;
41167;SDS011;26906;45.658;9.272;2023-03-23T08:13:20;13.43;;;7.05;;
41167;SDS011;26906;45.658;9.272;2023-03-23T08:15:59;11.60;;;6.38;;
41167;SDS011;26906;45.658;9.272;2023-03-23T08:18:56;14.65;;;6.05;;
41167;SDS011;26906;45.658;9.272;2023-03-23T08:21:49;11.05;;;5.78;;
41167;SDS011;26906;45.658;9.272;2023-03-23T08:24:44;8.35;;;5.45;;
41167;SDS011;26906;45.658;9.272;2023-03-23T08:27:22;11.30;;;5.78;;
41167;SDS011;26906;45.658;9.272;2023-03-23T08:33:11;9.52;;;5.50;;
41167;SDS011;26906;45.658;9.272;2023-03-23T08:35:56;12.50;;;5.97;;
41167;SDS011;26906;45.658;9.272;2023-03-23T08:38:41;10.40;;;6.18;;
41167;SDS011;26906;45.658;9.272;2023-03-23T08:41:28;9.70;;;5.78;;
41167;SDS011;26906;45.658;9.272;2023-03-23T08:44:03;10.70;;;5.78;;
41167;SDS011;26906;45.658;9.272;2023-03-23T08:46:47;9.13;;;5.25;;
41167;SDS011;26906;45.658;9.272;2023-03-23T08:49:26;8.60;;;5.43;;
41167;SDS011;26906;45.658;9.272;2023-03-23T08:52:25;7.78;;;5.55;;
41167;SDS011;26906;45.658;9.272;2023-03-23T08:55:03;6.82;;;5.72;;
41167;SDS011;26906;45.658;9.272;2023-03-23T08:57:50;9.93;;;5.28;;
41167;SDS011;26906;45.658;9.272;2023-03-23T09:00:36;7.75;;;5.50;;
41167;SDS011;26906;45.658;9.272;2023-03-23T09:03:22;8.25;;;5.57;;
41167;SDS011;26906;45.658;9.272;2023-03-23T09:06:26;10.65;;;5.50;;
41167;SDS011;26906;45.658;9.272;2023-03-23T09:08:53;8.38;;;5.80;;
41167;SDS011;26906;45.658;9.272;2023-03-23T09:11:20;7.80;;;6.03;;
41167;SDS011;26906;45.658;9.272;2023-03-23T09:13:46;9.70;;;6.13;;
41167;SDS011;26906;45.658;9.272;2023-03-23T09:16:12;8.60;;;5.60;;
41167;SDS011;26906;45.658;9.272;2023-03-23T09:18:38;11.30;;;6.05;;
41167;SDS011;26906;45.658;9.272;2023-03-23T09:21:03;7.57;;;5.93;;
41167;SDS011;26906;45.658;9.272;2023-03-23T09:23:30;9.25;;;6.15;;
41167;SDS011;26906;45.658;9.272;2023-03-23T09:25:56;10.10;;;5.93;;
41167;SDS011;26906;45.658;9.272;2023-03-23T09:28:22;9.90;;;6.00;;
41167;SDS011;26906;45.658;9.272;2023-03-23T09:30:47;9.80;;;5.68;;
41167;SDS011;26906;45.658;9.272;2023-03-23T09:33:14;8.32;;;5.80;;
41167;SDS011;26906;45.658;9.272;2023-03-23T09:35:40;7.53;;;5.45;;
41167;SDS011;26906;45.658;9.272;2023-03-23T09:38:08;9.82;;;5.57;;
41167;SDS011;26906;45.658;9.272;2023-03-23T09:40:51;8.93;;;6.10;;
41167;SDS011;26906;45.658;9.272;2023-03-23T09:54:04;8.40;;;6.20;;
41167;SDS011;26906;45.658;9.272;2023-03-23T09:56:44;9.23;;;6.95;;
41167;SDS011;26906;45.658;9.272;2023-03-23T10:02:08;9.00;;;6.53;;
41167;SDS011;26906;45.658;9.272;2023-03-23T10:04:47;8.90;;;7.22;;
41167;SDS011;26906;45.658;9.272;2023-03-23T10:07:19;10.52;;;7.00;;
41167;SDS011;26906;45.658;9.272;2023-03-23T10:09:48;11.48;;;7.70;;
41167;SDS011;26906;45.658;9.272;2023-03-23T10:12:22;12.85;;;7.95;;
41167;SDS011;26906;45.658;9.272;2023-03-23T10:15:15;11.35;;;7.88;;
41167;SDS011;26906;45.658;9.272;2023-03-23T10:18:02;12.32;;;7.65;;
41167;SDS011;26906;45.658;9.272;2023-03-23T10:23:41;11.23;;;7.60;;
41167;SDS011;26906;45.658;9.272;2023-03-23T10:31:46;9.32;;;8.20;;
41167;SDS011;26906;45.658;9.272;2023-03-23T10:37:13;10.98;;;8.73;;
41167;SDS011;26906;45.658;9.272;2023-03-23T10:44:51;10.48;;;9.38;;
41167;SDS011;26906;45.658;9.272;2023-03-23T10:47:18;10.88;;;8.38;;
41167;SDS011;26906;45.658;9.272;2023-03-23T10:49:45;13.30;;;8.80;;
41167;SDS011;26906;45.658;9.272;2023-03-23T10:52:27;15.52;;;9.38;;
41167;SDS011;26906;45.658;9.272;2023-03-23T10:55:08;12.13;;;8.35;;
41167;SDS011;26906;45.658;9.272;2023-03-23T10:57:40;16.65;;;8.60;;
41167;SDS011;26906;45.658;9.272;2023-03-23T11:00:21;11.27;;;8.32;;
41167;SDS011;26906;45.658;9.272;2023-03-23T11:02:59;11.73;;;8.27;;
41167;SDS011;26906;45.658;9.272;2023-03-23T11:05:38;13.57;;;9.23;;
41167;SDS011;26906;45.658;9.272;2023-03-23T11:08:18;14.53;;;8.57;;
41167;SDS011;26906;45.658;9.272;2023-03-23T11:10:55;12.80;;;7.97;;
41167;SDS011;26906;45.658;9.272;2023-03-23T11:13:27;16.90;;;7.70;;
41167;SDS011;26906;45.658;9.272;2023-03-23T11:15:57;11.05;;;8.95;;
41167;SDS011;26906;45.658;9.272;2023-03-23T11:18:42;13.02;;;7.82;;
41167;SDS011;26906;45.658;9.272;2023-03-23T11:21:08;11.30;;;7.70;;
41167;SDS011;26906;45.658;9.272;2023-03-23T11:23:38;11.02;;;8.30;;
41167;SDS011;26906;45.658;9.272;2023-03-23T11:26:14;12.43;;;7.80;;
41167;SDS011;26906;45.658;9.272;2023-03-23T11:28:47;17.10;;;8.63;;
41167;SDS011;26906;45.658;9.272;2023-03-23T11:31:17;11.25;;;8.02;;
41167;SDS011;26906;45.658;9.272;2023-03-23T11:36:33;11.07;;;8.30;;
41167;SDS011;26906;45.658;9.272;2023-03-23T11:39:02;14.23;;;8.50;;
41167;SDS011;26906;45.658;9.272;2023-03-23T11:41:44;16.70;;;7.43;;
41167;SDS011;26906;45.658;9.272;2023-03-23T11:44:10;12.10;;;7.10;;
41167;SDS011;26906;45.658;9.272;2023-03-23T11:46:49;10.82;;;7.35;;
41167;SDS011;26906;45.658;9.272;2023-03-23T11:49:42;12.23;;;8.48;;
41167;SDS011;26906;45.658;9.272;2023-03-23T11:52:32;13.90;;;9.38;;
41167;SDS011;26906;45.658;9.272;2023-03-23T11:55:04;11.00;;;8.63;;
41167;SDS011;26906;45.658;9.272;2023-03-23T11:57:54;12.27;;;9.15;;
41167;SDS011;26906;45.658;9.272;2023-03-23T12:00:25;11.82;;;9.05;;
41167;SDS011;26906;45.658;9.272;2023-03-23T12:06:07;12.48;;;8.80;;
41167;SDS011;26906;45.658;9.272;2023-03-23T12:14:54;11.63;;;10.30;;
41167;SDS011;26906;45.658;9.272;2023-03-23T12:20:30;12.27;;;9.75;;
41167;SDS011;26906;45.658;9.272;2023-03-23T12:23:01;18.40;;;11.68;;
41167;SDS011;26906;45.658;9.272;2023-03-23T12:25:40;11.52;;;10.18;;
41167;SDS011;26906;45.658;9.272;2023-03-23T12:28:42;21.52;;;11.32;;
41167;SDS011;26906;45.658;9.272;2023-03-23T12:42:24;12.20;;;7.45;;
41167;SDS011;26906;45.658;9.272;2023-03-23T12:47:39;17.20;;;10.60;;
41167;SDS011;26906;45.658;9.272;2023-03-23T12:50:20;10.18;;;7.53;;
41167;SDS011;26906;45.658;9.272;2023-03-23T12:58:25;12.45;;;9.32;;
41167;SDS011;26906;45.658;9.272;2023-03-23T13:08:44;12.45;;;8.80;;
41167;SDS011;26906;45.658;9.272;2023-03-23T13:11:19;15.07;;;8.32;;
41167;SDS011;26906;45.658;9.272;2023-03-23T13:13:54;11.52;;;9.43;;
41167;SDS011;26906;45.658;9.272;2023-03-23T13:22:54;11.57;;;8.52;;
41167;SDS011;26906;45.658;9.272;2023-03-23T13:25:56;13.15;;;8.10;;
41167;SDS011;26906;45.658;9.272;2023-03-23T13:28:57;10.48;;;7.70;;
41167;SDS011;26906;45.658;9.272;2023-03-23T13:31:32;11.30;;;8.35;;
41167;SDS011;26906;45.658;9.272;2023-03-23T13:34:04;11.95;;;8.35;;
41167;SDS011;26906;45.658;9.272;2023-03-23T13:36:38;11.15;;;7.97;;
41167;SDS011;26906;45.658;9.272;2023-03-23T13:39:18;12.70;;;9.02;;
41167;SDS011;26906;45.658;9.272;2023-03-23T13:41:58;14.13;;;8.82;;
41167;SDS011;26906;45.658;9.272;2023-03-23T13:44:38;13.45;;;9.50;;
41167;SDS011;26906;45.658;9.272;2023-03-23T13:49:54;13.98;;;9.30;;
41167;SDS011;26906;45.658;9.272;2023-03-23T13:52:36;15.20;;;9.20;;
41167;SDS011;26906;45.658;9.272;2023-03-23T13:57:55;13.00;;;8.77;;
41167;SDS011;26906;45.658;9.272;2023-03-23T14:03:13;16.52;;;9.35;;
41167;SDS011;26906;45.658;9.272;2023-03-23T14:05:45;14.98;;;8.50;;
41167;SDS011;26906;45.658;9.272;2023-03-23T14:19:03;18.00;;;8.90;;
41167;SDS011;26906;45.658;9.272;2023-03-23T14:21:41;16.98;;;9.48;;
41167;SDS011;26906;45.658;9.272;2023-03-23T14:24:21;11.23;;;8.68;;
41167;SDS011;26906;45.658;9.272;2023-03-23T14:26:54;14.13;;;8.25;;
41167;SDS011;26906;45.658;9.272;2023-03-23T14:29:33;10.63;;;8.48;;
41167;SDS011;26906;45.658;9.272;2023-03-23T14:31:58;12.40;;;8.45;;
41167;SDS011;26906;45.658;9.272;2023-03-23T14:34:29;11.20;;;8.10;;
41167;SDS011;26906;45.658;9.272;2023-03-23T14:36:57;12.18;;;8.38;;
41167;SDS011;26906;45.658;9.272;2023-03-23T14:41:53;15.05;;;9.80;;
41167;SDS011;26906;45.658;9.272;2023-03-23T14:44:27;14.50;;;8.93;;
41167;SDS011;26906;45.658;9.272;2023-03-23T14:46:55;11.13;;;8.57;;
41167;SDS011;26906;45.658;9.272;2023-03-23T14:49:30;10.63;;;8.23;;
41167;SDS011;26906;45.658;9.272;2023-03-23T14:52:03;13.43;;;8.27;;
41167;SDS011;26906;45.658;9.272;2023-03-23T14:54:40;12.18;;;8.20;;
41167;SDS011;26906;45.658;9.272;2023-03-23T14:57:12;15.90;;;8.23;;
41167;SDS011;26906;45.658;9.272;2023-03-23T14:59:44;14.73;;;7.10;;
41167;SDS011;26906;45.658;9.272;2023-03-23T15:02:31;11.80;;;7.03;;
41167;SDS011;26906;45.658;9.272;2023-03-23T15:05:01;12.80;;;6.60;;
41167;SDS011;26906;45.658;9.272;2023-03-23T15:07:33;9.75;;;8.05;;
41167;SDS011;26906;45.658;9.272;2023-03-23T15:10:00;14.82;;;8.80;;
41167;SDS011;26906;45.658;9.272;2023-03-23T15:12:28;9.90;;;7.30;;
41167;SDS011;26906;45.658;9.272;2023-03-23T15:14:57;9.05;;;7.20;;
41167;SDS011;26906;45.658;9.272;2023-03-23T15:17:41;11.85;;;7.50;;
41167;SDS011;26906;45.658;9.272;2023-03-23T15:23:05;11.15;;;6.10;;
41167;SDS011;26906;45.658;9.272;2023-03-23T15:25:32;8.02;;;5.97;;
41167;SDS011;26906;45.658;9.272;2023-03-23T15:30:51;9.15;;;5.93;;
41167;SDS011;26906;45.658;9.272;2023-03-23T15:33:19;9.73;;;5.68;;
41167;SDS011;26906;45.658;9.272;2023-03-23T15:35:51;9.83;;;6.53;;
41167;SDS011;26906;45.658;9.272;2023-03-23T15:38:31;11.30;;;6.78;;
41167;SDS011;26906;45.658;9.272;2023-03-23T15:41:00;9.05;;;6.65;;
41167;SDS011;26906;45.658;9.272;2023-03-23T15:43:32;8.50;;;6.00;;
41167;SDS011;26906;45.658;9.272;2023-03-23T15:46:04;11.60;;;7.43;;
41167;SDS011;26906;45.658;9.272;2023-03-23T15:48:46;8.80;;;6.97;;
41167;SDS011;26906;45.658;9.272;2023-03-23T15:51:16;11.27;;;7.15;;
41167;SDS011;26906;45.658;9.272;2023-03-23T15:53:43;13.27;;;7.38;;
41167;SDS011;26906;45.658;9.272;2023-03-23T15:56:10;13.13;;;8.00;;
41167;SDS011;26906;45.658;9.272;2023-03-23T15:58:37;10.73;;;7.20;;
41167;SDS011;26906;45.658;9.272;2023-03-23T16:01:07;12.38;;;7.82;;
41167;SDS011;26906;45.658;9.272;2023-03-23T16:03:45;13.15;;;7.82;;
41167;SDS011;26906;45.658;9.272;2023-03-23T16:06:17;10.75;;;6.88;;
41167;SDS011;26906;45.658;9.272;2023-03-23T16:08:44;13.70;;;7.43;;
41167;SDS011;26906;45.658;9.272;2023-03-23T16:11:14;9.32;;;7.15;;
41167;SDS011;26906;45.658;9.272;2023-03-23T16:13:41;13.05;;;7.88;;
41167;SDS011;26906;45.658;9.272;2023-03-23T16:16:12;12.13;;;7.78;;
41167;SDS011;26906;45.658;9.272;2023-03-23T16:18:51;11.05;;;6.75;;
41167;SDS011;26906;45.658;9.272;2023-03-23T16:21:17;16.15;;;7.28;;
41167;SDS011;26906;45.658;9.272;2023-03-23T16:23:43;9.43;;;7.43;;
41167;SDS011;26906;45.658;9.272;2023-03-23T16:26:10;9.23;;;7.30;;
41167;SDS011;26906;45.658;9.272;2023-03-23T16:28:37;17.35;;;7.18;;
41167;SDS011;26906;45.658;9.272;2023-03-23T16:31:03;15.05;;;7.32;;
41167;SDS011;26906;45.658;9.272;2023-03-23T16:33:29;12.80;;;7.25;;
41167;SDS011;26906;45.658;9.272;2023-03-23T16:35:54;11.30;;;6.97;;
41167;SDS011;26906;45.658;9.272;2023-03-23T16:38:21;13.65;;;7.18;;
41167;SDS011;26906;45.658;9.272;2023-03-23T16:40:47;9.07;;;6.50;;
41167;SDS011;26906;45.658;9.272;2023-03-23T16:43:12;12.23;;;7.40;;
41167;SDS011;26906;45.658;9.272;2023-03-23T16:45:40;10.15;;;7.13;;
41167;SDS011;26906;45.658;9.272;2023-03-23T16:48:08;10.82;;;6.80;;
41167;SDS011;26906;45.658;9.272;2023-03-23T16:50:36;10.02;;;7.40;;
41167;SDS011;26906;45.658;9.272;2023-03-23T16:53:02;11.82;;;7.28;;
41167;SDS011;26906;45.658;9.272;2023-03-23T16:55:29;12.75;;;7.00;;
41167;SDS011;26906;45.658;9.272;2023-03-23T16:57:56;10.90;;;7.03;;
41167;SDS011;26906;45.658;9.272;2023-03-23T17:00:21;11.80;;;6.80;;
41167;SDS011;26906;45.658;9.272;2023-03-23T17:02:49;8.90;;;6.63;;
41167;SDS011;26906;45.658;9.272;2023-03-23T17:05:19;12.95;;;7.30;;
41167;SDS011;26906;45.658;9.272;2023-03-23T17:07:46;12.73;;;6.65;;
41167;SDS011;26906;45.658;9.272;2023-03-23T17:10:13;12.30;;;6.78;;
41167;SDS011;26906;45.658;9.272;2023-03-23T17:12:39;11.73;;;7.13;;
41167;SDS011;26906;45.658;9.272;2023-03-23T17:15:06;12.25;;;7.07;;
41167;SDS011;26906;45.658;9.272;2023-03-23T17:17:33;14.55;;;6.85;;
41167;SDS011;26906;45.658;9.272;2023-03-23T17:19:59;12.60;;;6.43;;
41167;SDS011;26906;45.658;9.272;2023-03-23T17:22:25;11.00;;;7.82;;
41167;SDS011;26906;45.658;9.272;2023-03-23T17:24:51;13.55;;;6.80;;
41167;SDS011;26906;45.658;9.272;2023-03-23T17:27:18;9.57;;;6.20;;
41167;SDS011;26906;45.658;9.272;2023-03-23T17:29:45;14.10;;;6.70;;
41167;SDS011;26906;45.658;9.272;2023-03-23T17:32:11;12.98;;;7.13;;
41167;SDS011;26906;45.658;9.272;2023-03-23T17:34:37;11.65;;;6.95;;
41167;SDS011;26906;45.658;9.272;2023-03-23T17:37:03;13.07;;;8.68;;
41167;SDS011;26906;45.658;9.272;2023-03-23T17:39:29;11.02;;;6.57;;
41167;SDS011;26906;45.658;9.272;2023-03-23T17:41:56;10.18;;;6.00;;
41167;SDS011;26906;45.658;9.272;2023-03-23T17:44:23;13.32;;;6.50;;
41167;SDS011;26906;45.658;9.272;2023-03-23T17:46:49;10.40;;;7.03;;
41167;SDS011;26906;45.658;9.272;2023-03-23T17:49:14;9.75;;;6.70;;
41167;SDS011;26906;45.658;9.272;2023-03-23T17:51:40;9.98;;;6.93;;
41167;SDS011;26906;45.658;9.272;2023-03-23T17:54:09;11.65;;;7.45;;
41167;SDS011;26906;45.658;9.272;2023-03-23T17:56:35;12.52;;;6.55;;
41167;SDS011;26906;45.658;9.272;2023-03-23T17:59:00;8.98;;;6.47;;
41167;SDS011;26906;45.658;9.272;2023-03-23T18:01:26;11.00;;;6.97;;
41167;SDS011;26906;45.658;9.272;2023-03-23T18:03:52;11.15;;;6.45;;
41167;SDS011;26906;45.658;9.272;2023-03-23T18:06:18;10.48;;;7.03;;
41167;SDS011;26906;45.658;9.272;2023-03-23T18:08:44;12.50;;;6.60;;
41167;SDS011;26906;45.658;9.272;2023-03-23T18:11:10;11.65;;;6.47;;
41167;SDS011;26906;45.658;9.272;2023-03-23T18:13:36;9.52;;;6.00;;
41167;SDS011;26906;45.658;9.272;2023-03-23T18:16:02;9.23;;;6.22;;
41167;SDS011;26906;45.658;9.272;2023-03-23T18:18:29;11.55;;;6.45;;
41167;SDS011;26906;45.658;9.272;2023-03-23T18:21:02;9.50;;;6.05;;
41167;SDS011;26906;45.658;9.272;2023-03-23T18:23:31;8.02;;;6.43;;
41167;SDS011;26906;45.658;9.272;2023-03-23T18:26:03;10.25;;;5.38;;
41167;SDS011;26906;45.658;9.272;2023-03-23T18:28:30;10.93;;;5.13;;
41167;SDS011;26906;45.658;9.272;2023-03-23T18:31:07;8.85;;;5.60;;
41167;SDS011;26906;45.658;9.272;2023-03-23T18:33:35;9.90;;;5.43;;
41167;SDS011;26906;45.658;9.272;2023-03-23T18:36:02;7.25;;;5.07;;
41167;SDS011;26906;45.658;9.272;2023-03-23T18:38:29;10.90;;;5.30;;
41167;SDS011;26906;45.658;9.272;2023-03-23T18:40:55;9.15;;;4.53;;
41167;SDS011;26906;45.658;9.272;2023-03-23T18:43:21;11.63;;;4.97;;
41167;SDS011;26906;45.658;9.272;2023-03-23T18:45:48;7.15;;;4.55;;
41167;SDS011;26906;45.658;9.272;2023-03-23T18:48:17;10.68;;;4.25;;
41167;SDS011;26906;45.658;9.272;2023-03-23T18:50:47;6.45;;;3.85;;
41167;SDS011;26906;45.658;9.272;2023-03-23T18:53:13;12.15;;;4.53;;
41167;SDS011;26906;45.658;9.272;2023-03-23T18:55:40;7.95;;;3.60;;
41167;SDS011;26906;45.658;9.272;2023-03-23T18:58:07;6.90;;;3.80;;
41167;SDS011;26906;45.658;9.272;2023-03-23T19:00:33;7.03;;;4.05;;
41167;SDS011;26906;45.658;9.272;2023-03-23T19:02:59;6.32;;;3.70;;
41167;SDS011;26906;45.658;9.272;2023-03-23T19:05:25;7.75;;;4.13;;
41167;SDS011;26906;45.658;9.272;2023-03-23T19:07:52;6.50;;;4.07;;
41167;SDS011;26906;45.658;9.272;2023-03-23T19:10:20;6.97;;;4.20;;
41167;SDS011;26906;45.658;9.272;2023-03-23T19:12:46;7.30;;;4.18;;
41167;SDS011;26906;45.658;9.272;2023-03-23T19:15:12;11.18;;;4.35;;
41167;SDS011;26906;45.658;9.272;2023-03-23T19:17:38;7.13;;;3.72;;
41167;SDS011;26906;45.658;9.272;2023-03-23T19:20:05;8.73;;;4.25;;
41167;SDS011;26906;45.658;9.272;2023-03-23T19:22:33;8.45;;;4.78;;
41167;SDS011;26906;45.658;9.272;2023-03-23T19:25:01;13.30;;;4.18;;
41167;SDS011;26906;45.658;9.272;2023-03-23T19:27:27;8.90;;;4.15;;
41167;SDS011;26906;45.658;9.272;2023-03-23T19:29:53;7.55;;;3.50;;
41167;SDS011;26906;45.658;9.272;2023-03-23T19:32:19;8.07;;;4.10;;
41167;SDS011;26906;45.658;9.272;2023-03-23T19:34:45;12.15;;;4.40;;
41167;SDS011;26906;45.658;9.272;2023-03-23T19:37:10;7.45;;;3.90;;
41167;SDS011;26906;45.658;9.272;2023-03-23T19:39:37;9.52;;;4.57;;
41167;SDS011;26906;45.658;9.272;2023-03-23T19:42:04;6.10;;;4.25;;
41167;SDS011;26906;45.658;9.272;2023-03-23T19:44:31;6.55;;;4.22;;
41167;SDS011;26906;45.658;9.272;2023-03-23T19:46:59;8.07;;;4.18;;
41167;SDS011;26906;45.658;9.272;2023-03-23T19:49:25;7.40;;;4.53;;
41167;SDS011;26906;45.658;9.272;2023-03-23T19:51:54;12.55;;;4.45;;
41167;SDS011;26906;45.658;9.272;2023-03-23T19:54:20;7.38;;;4.75;;
41167;SDS011;26906;45.658;9.272;2023-03-23T19:56:46;8.07;;;4.43;;
41167;SDS011;26906;45.658;9.272;2023-03-23T19:59:12;6.68;;;4.25;;
41167;SDS011;26906;45.658;9.272;2023-03-23T20:01:43;7.32;;;4.82;;
41167;SDS011;26906;45.658;9.272;2023-03-23T20:04:12;5.60;;;4.57;;
41167;SDS011;26906;45.658;9.272;2023-03-23T20:06:41;6.07;;;4.85;;
41167;SDS011;26906;45.658;9.272;2023-03-23T20:09:06;6.20;;;4.88;;
41167;SDS011;26906;45.658;9.272;2023-03-23T20:11:32;6.32;;;4.80;;
41167;SDS011;26906;45.658;9.272;2023-03-23T20:13:58;7.30;;;4.60;;
41167;SDS011;26906;45.658;9.272;2023-03-23T20:16:25;6.95;;;4.47;;
41167;SDS011;26906;45.658;9.272;2023-03-23T20:18:54;8.15;;;5.30;;
41167;SDS011;26906;45.658;9.272;2023-03-23T20:21:21;8.32;;;5.30;;
41167;SDS011;26906;45.658;9.272;2023-03-23T20:23:51;13.45;;;5.57;;
41167;SDS011;26906;45.658;9.272;2023-03-23T20:26:20;9.60;;;5.22;;
41167;SDS011;26906;45.658;9.272;2023-03-23T20:28:48;7.78;;;5.15;;
41167;SDS011;26906;45.658;9.272;2023-03-23T20:31:15;6.97;;;5.43;;
41167;SDS011;26906;45.658;9.272;2023-03-23T20:33:43;8.20;;;5.13;;
41167;SDS011;26906;45.658;9.272;2023-03-23T20:36:10;7.38;;;5.32;;
41167;SDS011;26906;45.658;9.272;2023-03-23T20:38:37;7.72;;;6.07;;
41167;SDS011;26906;45.658;9.272;2023-03-23T20:41:05;10.77;;;5.82;;
41167;SDS011;26906;45.658;9.272;2023-03-23T20:43:37;6.53;;;5.60;;
41167;SDS011;26906;45.658;9.272;2023-03-23T20:46:04;8.40;;;6.50;;
41167;SDS011;26906;45.658;9.272;2023-03-23T20:48:32;8.20;;;6.35;;
41167;SDS011;26906;45.658;9.272;2023-03-23T20:50:59;8.90;;;6.70;;
41167;SDS011;26906;45.658;9.272;2023-03-23T20:53:27;9.45;;;6.90;;
41167;SDS011;26906;45.658;9.272;2023-03-23T20:55:55;8.63;;;7.00;;
41167;SDS011;26906;45.658;9.272;2023-03-23T20:58:26;8.60;;;6.28;;
41167;SDS011;26906;45.658;9.272;2023-03-23T21:00:53;7.85;;;5.50;;
41167;SDS011;26906;45.658;9.272;2023-03-23T21:03:22;7.35;;;5.63;;
41167;SDS011;26906;45.658;9.272;2023-03-23T21:05:48;8.82;;;6.47;;
41167;SDS011;26906;45.658;9.272;2023-03-23T21:08:14;8.43;;;6.30;;
41167;SDS011;26906;45.658;9.272;2023-03-23T21:10:42;8.27;;;6.10;;
41167;SDS011;26906;45.658;9.272;2023-03-23T21:13:08;8.55;;;6.35;;
41167;SDS011;26906;45.658;9.272;2023-03-23T21:15:34;9.02;;;6.18;;
41167;SDS011;26906;45.658;9.272;2023-03-23T21:18:00;10.00;;;6.13;;
41167;SDS011;26906;45.658;9.272;2023-03-23T21:20:26;7.55;;;6.75;;
41167;SDS011;26906;45.658;9.272;2023-03-23T21:22:52;7.05;;;6.03;;
41167;SDS011;26906;45.658;9.272;2023-03-23T21:25:18;6.90;;;6.20;;
41167;SDS011;26906;45.658;9.272;2023-03-23T21:27:46;7.93;;;6.25;;
41167;SDS011;26906;45.658;9.272;2023-03-23T21:30:13;12.85;;;6.63;;
41167;SDS011;26906;45.658;9.272;2023-03-23T21:32:39;9.70;;;6.57;;
41167;SDS011;26906;45.658;9.272;2023-03-23T21:35:05;11.68;;;6.97;;
41167;SDS011;26906;45.658;9.272;2023-03-23T21:37:31;10.63;;;7.43;;
41167;SDS011;26906;45.658;9.272;2023-03-23T21:39:56;12.55;;;7.40;;
